sensor_id;sensor_type;location;lat;lon;timestamp;P1;durP1;ratioP1;P2;durP2;ratioP2
17650;SDS011;26663;59.302;18.082;2023-02-26T00:00:30;1.43;;;1.43;;
17650;SDS011;26663;59.302;18.082;2023-02-26T00:03:36;5.07;;;1.67;;
17650;SDS011;26663;59.302;18.082;2023-02-26T00:06:42;5.33;;;3.63;;
17650;SDS011;26663;59.302;18.082;2023-02-26T00:09:59;8.47;;;3.83;;
17650;SDS011;26663;59.302;18.082;2023-02-26T00:13:09;8.23;;;4.37;;
17650;SDS011;26663;59.302;18.082;2023-02-26T00:16:19;15.00;;;4.87;;
17650;SDS011;26663;59.302;18.082;2023-02-26T00:19:29;7.57;;;3.30;;
17650;SDS011;26663;59.302;18.082;2023-02-26T00:22:34;2.20;;;2.00;;
17650;SDS011;26663;59.302;18.082;2023-02-26T00:25:40;11.67;;;4.53;;
17650;SDS011;26663;59.302;18.082;2023-02-26T00:28:46;5.13;;;2.73;;
17650;SDS011;26663;59.302;18.082;2023-02-26T00:31:53;10.27;;;4.60;;
17650;SDS011;26663;59.302;18.082;2023-02-26T00:34:59;13.90;;;4.10;;
17650;SDS011;26663;59.302;18.082;2023-02-26T00:38:06;20.90;;;6.20;;
17650;SDS011;26663;59.302;18.082;2023-02-26T00:41:14;13.90;;;5.37;;
17650;SDS011;26663;59.302;18.082;2023-02-26T00:44:21;5.77;;;4.07;;
17650;SDS011;26663;59.302;18.082;2023-02-26T00:47:29;7.00;;;3.53;;
17650;SDS011;26663;59.302;18.082;2023-02-26T00:50:39;2.20;;;2.03;;
17650;SDS011;26663;59.302;18.082;2023-02-26T00:53:49;4.07;;;2.17;;
17650;SDS011;26663;59.302;18.082;2023-02-26T00:56:58;2.43;;;1.90;;
17650;SDS011;26663;59.302;18.082;2023-02-26T01:00:06;2.77;;;2.27;;
17650;SDS011;26663;59.302;18.082;2023-02-26T01:03:14;2.60;;;2.23;;
17650;SDS011;26663;59.302;18.082;2023-02-26T01:06:20;2.27;;;2.10;;
17650;SDS011;26663;59.302;18.082;2023-02-26T01:09:26;4.03;;;2.30;;
17650;SDS011;26663;59.302;18.082;2023-02-26T01:12:36;1.93;;;1.73;;
17650;SDS011;26663;59.302;18.082;2023-02-26T01:15:46;13.67;;;4.43;;
17650;SDS011;26663;59.302;18.082;2023-02-26T01:18:57;5.60;;;3.20;;
17650;SDS011;26663;59.302;18.082;2023-02-26T01:22:07;4.87;;;2.53;;
17650;SDS011;26663;59.302;18.082;2023-02-26T01:25:17;2.53;;;1.83;;
17650;SDS011;26663;59.302;18.082;2023-02-26T01:28:25;2.73;;;1.80;;
17650;SDS011;26663;59.302;18.082;2023-02-26T01:31:33;1.43;;;1.43;;
17650;SDS011;26663;59.302;18.082;2023-02-26T01:34:45;9.83;;;4.10;;
17650;SDS011;26663;59.302;18.082;2023-02-26T01:37:55;14.17;;;4.80;;
17650;SDS011;26663;59.302;18.082;2023-02-26T01:41:10;5.73;;;2.70;;
17650;SDS011;26663;59.302;18.082;2023-02-26T01:44:22;8.00;;;3.17;;
17650;SDS011;26663;59.302;18.082;2023-02-26T01:47:32;5.53;;;2.20;;
17650;SDS011;26663;59.302;18.082;2023-02-26T01:50:44;7.43;;;4.37;;
17650;SDS011;26663;59.302;18.082;2023-02-26T01:53:49;16.07;;;4.93;;
17650;SDS011;26663;59.302;18.082;2023-02-26T01:56:55;7.57;;;3.40;;
17650;SDS011;26663;59.302;18.082;2023-02-26T02:00:03;10.47;;;5.13;;
17650;SDS011;26663;59.302;18.082;2023-02-26T02:03:13;10.33;;;3.20;;
17650;SDS011;26663;59.302;18.082;2023-02-26T02:06:20;16.13;;;6.10;;
17650;SDS011;26663;59.302;18.082;2023-02-26T02:09:28;6.80;;;3.67;;
17650;SDS011;26663;59.302;18.082;2023-02-26T02:12:36;5.97;;;1.90;;
17650;SDS011;26663;59.302;18.082;2023-02-26T02:15:44;2.30;;;1.50;;
17650;SDS011;26663;59.302;18.082;2023-02-26T02:18:52;2.33;;;2.17;;
17650;SDS011;26663;59.302;18.082;2023-02-26T02:22:09;1.43;;;1.30;;
17650;SDS011;26663;59.302;18.082;2023-02-26T02:25:30;2.87;;;1.43;;
17650;SDS011;26663;59.302;18.082;2023-02-26T02:29:16;3.23;;;2.20;;
17650;SDS011;26663;59.302;18.082;2023-02-26T02:32:47;2.63;;;1.83;;
17650;SDS011;26663;59.302;18.082;2023-02-26T02:35:55;1.50;;;1.40;;
17650;SDS011;26663;59.302;18.082;2023-02-26T02:39:03;3.20;;;1.53;;
17650;SDS011;26663;59.302;18.082;2023-02-26T02:42:17;1.33;;;1.30;;
17650;SDS011;26663;59.302;18.082;2023-02-26T02:45:26;3.30;;;1.70;;
17650;SDS011;26663;59.302;18.082;2023-02-26T02:48:37;1.80;;;1.70;;
17650;SDS011;26663;59.302;18.082;2023-02-26T02:51:46;2.00;;;1.70;;
17650;SDS011;26663;59.302;18.082;2023-02-26T02:54:55;1.87;;;1.50;;
17650;SDS011;26663;59.302;18.082;2023-02-26T02:58:04;1.77;;;1.50;;
17650;SDS011;26663;59.302;18.082;2023-02-26T03:01:13;2.47;;;1.43;;
17650;SDS011;26663;59.302;18.082;2023-02-26T03:04:23;2.23;;;1.57;;
17650;SDS011;26663;59.302;18.082;2023-02-26T03:07:29;4.73;;;2.17;;
17650;SDS011;26663;59.302;18.082;2023-02-26T03:10:37;1.00;;;1.00;;
17650;SDS011;26663;59.302;18.082;2023-02-26T03:13:42;1.40;;;1.30;;
17650;SDS011;26663;59.302;18.082;2023-02-26T03:16:58;4.63;;;1.67;;
17650;SDS011;26663;59.302;18.082;2023-02-26T03:20:15;2.80;;;1.20;;
17650;SDS011;26663;59.302;18.082;2023-02-26T03:23:25;2.77;;;1.20;;
17650;SDS011;26663;59.302;18.082;2023-02-26T03:26:36;1.07;;;1.07;;
17650;SDS011;26663;59.302;18.082;2023-02-26T03:29:46;2.37;;;1.10;;
17650;SDS011;26663;59.302;18.082;2023-02-26T03:32:56;4.97;;;1.60;;
17650;SDS011;26663;59.302;18.082;2023-02-26T03:36:09;1.77;;;1.50;;
17650;SDS011;26663;59.302;18.082;2023-02-26T03:39:27;1.70;;;1.60;;
17650;SDS011;26663;59.302;18.082;2023-02-26T03:42:35;1.33;;;1.20;;
17650;SDS011;26663;59.302;18.082;2023-02-26T03:45:44;1.50;;;1.10;;
17650;SDS011;26663;59.302;18.082;2023-02-26T03:48:51;1.40;;;1.30;;
17650;SDS011;26663;59.302;18.082;2023-02-26T03:52:01;5.63;;;1.90;;
17650;SDS011;26663;59.302;18.082;2023-02-26T03:55:27;3.87;;;1.60;;
17650;SDS011;26663;59.302;18.082;2023-02-26T03:58:34;1.20;;;1.20;;
17650;SDS011;26663;59.302;18.082;2023-02-26T04:01:55;2.30;;;1.10;;
17650;SDS011;26663;59.302;18.082;2023-02-26T04:05:08;1.37;;;1.37;;
17650;SDS011;26663;59.302;18.082;2023-02-26T04:08:17;3.43;;;1.07;;
17650;SDS011;26663;59.302;18.082;2023-02-26T04:11:23;2.53;;;1.13;;
17650;SDS011;26663;59.302;18.082;2023-02-26T04:14:29;1.00;;;1.00;;
17650;SDS011;26663;59.302;18.082;2023-02-26T04:17:34;1.03;;;1.03;;
17650;SDS011;26663;59.302;18.082;2023-02-26T04:20:39;1.50;;;0.87;;
17650;SDS011;26663;59.302;18.082;2023-02-26T04:23:46;1.77;;;1.30;;
17650;SDS011;26663;59.302;18.082;2023-02-26T04:26:52;1.00;;;1.00;;
17650;SDS011;26663;59.302;18.082;2023-02-26T04:29:58;2.10;;;1.20;;
17650;SDS011;26663;59.302;18.082;2023-02-26T04:33:06;1.20;;;1.10;;
17650;SDS011;26663;59.302;18.082;2023-02-26T04:36:12;1.43;;;1.30;;
17650;SDS011;26663;59.302;18.082;2023-02-26T04:39:18;1.00;;;1.00;;
17650;SDS011;26663;59.302;18.082;2023-02-26T04:42:24;2.53;;;1.13;;
17650;SDS011;26663;59.302;18.082;2023-02-26T04:45:30;0.93;;;0.93;;
17650;SDS011;26663;59.302;18.082;2023-02-26T04:48:35;1.00;;;1.00;;
17650;SDS011;26663;59.302;18.082;2023-02-26T04:51:43;1.00;;;1.00;;
17650;SDS011;26663;59.302;18.082;2023-02-26T04:54:51;1.80;;;1.10;;
17650;SDS011;26663;59.302;18.082;2023-02-26T04:57:57;3.40;;;1.03;;
17650;SDS011;26663;59.302;18.082;2023-02-26T05:01:02;1.17;;;1.10;;
17650;SDS011;26663;59.302;18.082;2023-02-26T05:04:09;1.00;;;1.00;;
17650;SDS011;26663;59.302;18.082;2023-02-26T05:07:16;1.37;;;1.10;;
17650;SDS011;26663;59.302;18.082;2023-02-26T05:10:25;4.00;;;1.20;;
17650;SDS011;26663;59.302;18.082;2023-02-26T05:13:30;1.40;;;1.20;;
17650;SDS011;26663;59.302;18.082;2023-02-26T05:16:36;1.00;;;1.00;;
17650;SDS011;26663;59.302;18.082;2023-02-26T05:19:43;1.17;;;1.17;;
17650;SDS011;26663;59.302;18.082;2023-02-26T05:22:48;1.00;;;0.97;;
17650;SDS011;26663;59.302;18.082;2023-02-26T05:25:56;1.40;;;0.90;;
17650;SDS011;26663;59.302;18.082;2023-02-26T05:29:01;1.03;;;1.00;;
17650;SDS011;26663;59.302;18.082;2023-02-26T05:32:09;3.00;;;0.90;;
17650;SDS011;26663;59.302;18.082;2023-02-26T05:35:14;2.13;;;1.07;;
17650;SDS011;26663;59.302;18.082;2023-02-26T05:38:20;0.90;;;0.90;;
17650;SDS011;26663;59.302;18.082;2023-02-26T05:41:27;0.97;;;0.97;;
17650;SDS011;26663;59.302;18.082;2023-02-26T05:44:32;1.00;;;1.00;;
17650;SDS011;26663;59.302;18.082;2023-02-26T05:47:37;1.20;;;1.20;;
17650;SDS011;26663;59.302;18.082;2023-02-26T05:50:43;1.20;;;1.20;;
17650;SDS011;26663;59.302;18.082;2023-02-26T05:53:50;1.90;;;1.07;;
17650;SDS011;26663;59.302;18.082;2023-02-26T05:56:57;0.90;;;0.90;;
17650;SDS011;26663;59.302;18.082;2023-02-26T06:00:02;1.00;;;1.00;;
17650;SDS011;26663;59.302;18.082;2023-02-26T06:03:18;1.00;;;1.00;;
17650;SDS011;26663;59.302;18.082;2023-02-26T06:06:23;1.10;;;1.10;;
17650;SDS011;26663;59.302;18.082;2023-02-26T06:09:29;1.00;;;0.97;;
17650;SDS011;26663;59.302;18.082;2023-02-26T06:12:35;0.90;;;0.90;;
17650;SDS011;26663;59.302;18.082;2023-02-26T06:15:41;3.07;;;1.10;;
17650;SDS011;26663;59.302;18.082;2023-02-26T06:18:46;1.27;;;1.20;;
17650;SDS011;26663;59.302;18.082;2023-02-26T06:21:54;1.20;;;1.07;;
17650;SDS011;26663;59.302;18.082;2023-02-26T06:24:59;0.93;;;0.93;;
17650;SDS011;26663;59.302;18.082;2023-02-26T06:28:06;1.83;;;1.30;;
17650;SDS011;26663;59.302;18.082;2023-02-26T06:31:12;2.43;;;1.00;;
17650;SDS011;26663;59.302;18.082;2023-02-26T06:34:17;1.30;;;1.00;;
17650;SDS011;26663;59.302;18.082;2023-02-26T06:37:24;1.03;;;1.00;;
17650;SDS011;26663;59.302;18.082;2023-02-26T06:40:32;1.47;;;1.40;;
17650;SDS011;26663;59.302;18.082;2023-02-26T06:43:38;0.90;;;0.90;;
17650;SDS011;26663;59.302;18.082;2023-02-26T06:46:43;1.07;;;0.90;;
17650;SDS011;26663;59.302;18.082;2023-02-26T06:49:48;1.17;;;1.10;;
17650;SDS011;26663;59.302;18.082;2023-02-26T06:52:54;1.07;;;0.93;;
17650;SDS011;26663;59.302;18.082;2023-02-26T06:55:59;1.10;;;1.10;;
17650;SDS011;26663;59.302;18.082;2023-02-26T06:59:06;0.93;;;0.93;;
17650;SDS011;26663;59.302;18.082;2023-02-26T07:02:14;1.10;;;1.10;;
17650;SDS011;26663;59.302;18.082;2023-02-26T07:05:21;1.10;;;1.00;;
17650;SDS011;26663;59.302;18.082;2023-02-26T07:08:26;1.10;;;1.00;;
17650;SDS011;26663;59.302;18.082;2023-02-26T07:11:31;1.10;;;1.10;;
17650;SDS011;26663;59.302;18.082;2023-02-26T07:14:38;1.17;;;1.17;;
17650;SDS011;26663;59.302;18.082;2023-02-26T07:17:45;1.03;;;1.00;;
17650;SDS011;26663;59.302;18.082;2023-02-26T07:20:50;1.40;;;1.30;;
17650;SDS011;26663;59.302;18.082;2023-02-26T07:23:55;2.10;;;1.20;;
17650;SDS011;26663;59.302;18.082;2023-02-26T07:27:01;1.00;;;1.00;;
17650;SDS011;26663;59.302;18.082;2023-02-26T07:30:08;0.97;;;0.97;;
17650;SDS011;26663;59.302;18.082;2023-02-26T07:33:15;0.90;;;0.90;;
17650;SDS011;26663;59.302;18.082;2023-02-26T07:36:20;1.00;;;1.00;;
17650;SDS011;26663;59.302;18.082;2023-02-26T07:39:25;1.23;;;1.10;;
17650;SDS011;26663;59.302;18.082;2023-02-26T07:42:31;0.90;;;0.90;;
17650;SDS011;26663;59.302;18.082;2023-02-26T07:45:37;1.07;;;1.00;;
17650;SDS011;26663;59.302;18.082;2023-02-26T07:48:43;1.10;;;1.10;;
17650;SDS011;26663;59.302;18.082;2023-02-26T07:51:48;1.17;;;1.17;;
17650;SDS011;26663;59.302;18.082;2023-02-26T07:54:53;3.03;;;1.10;;
17650;SDS011;26663;59.302;18.082;2023-02-26T07:57:58;1.90;;;1.20;;
17650;SDS011;26663;59.302;18.082;2023-02-26T08:01:05;0.87;;;0.87;;
17650;SDS011;26663;59.302;18.082;2023-02-26T08:04:10;3.47;;;1.03;;
17650;SDS011;26663;59.302;18.082;2023-02-26T08:07:15;1.30;;;1.00;;
17650;SDS011;26663;59.302;18.082;2023-02-26T08:10:21;2.33;;;1.00;;
17650;SDS011;26663;59.302;18.082;2023-02-26T08:13:26;1.40;;;1.00;;
17650;SDS011;26663;59.302;18.082;2023-02-26T08:16:32;1.70;;;1.20;;
17650;SDS011;26663;59.302;18.082;2023-02-26T08:19:38;1.17;;;1.17;;
17650;SDS011;26663;59.302;18.082;2023-02-26T08:22:43;2.70;;;1.23;;
17650;SDS011;26663;59.302;18.082;2023-02-26T08:25:48;1.00;;;1.00;;
17650;SDS011;26663;59.302;18.082;2023-02-26T08:28:53;1.00;;;1.00;;
17650;SDS011;26663;59.302;18.082;2023-02-26T08:32:00;1.53;;;1.10;;
17650;SDS011;26663;59.302;18.082;2023-02-26T08:35:08;2.00;;;1.10;;
17650;SDS011;26663;59.302;18.082;2023-02-26T08:38:13;1.10;;;1.10;;
17650;SDS011;26663;59.302;18.082;2023-02-26T08:41:18;2.90;;;1.10;;
17650;SDS011;26663;59.302;18.082;2023-02-26T08:44:25;3.23;;;1.10;;
17650;SDS011;26663;59.302;18.082;2023-02-26T08:47:33;1.40;;;1.40;;
17650;SDS011;26663;59.302;18.082;2023-02-26T08:50:50;1.50;;;1.50;;
17650;SDS011;26663;59.302;18.082;2023-02-26T08:53:55;1.27;;;1.00;;
17650;SDS011;26663;59.302;18.082;2023-02-26T08:57:00;2.30;;;1.30;;
17650;SDS011;26663;59.302;18.082;2023-02-26T09:00:08;1.20;;;1.20;;
17650;SDS011;26663;59.302;18.082;2023-02-26T09:03:15;2.80;;;1.40;;
17650;SDS011;26663;59.302;18.082;2023-02-26T09:06:21;2.43;;;1.80;;
17650;SDS011;26663;59.302;18.082;2023-02-26T09:09:27;1.50;;;1.40;;
17650;SDS011;26663;59.302;18.082;2023-02-26T09:12:32;1.20;;;1.20;;
17650;SDS011;26663;59.302;18.082;2023-02-26T09:15:38;1.53;;;1.40;;
17650;SDS011;26663;59.302;18.082;2023-02-26T09:18:46;2.20;;;1.10;;
17650;SDS011;26663;59.302;18.082;2023-02-26T09:21:52;3.20;;;1.27;;
17650;SDS011;26663;59.302;18.082;2023-02-26T09:24:57;1.30;;;1.30;;
17650;SDS011;26663;59.302;18.082;2023-02-26T09:28:03;3.50;;;1.20;;
17650;SDS011;26663;59.302;18.082;2023-02-26T09:31:09;2.43;;;1.00;;
17650;SDS011;26663;59.302;18.082;2023-02-26T09:34:17;2.40;;;1.10;;
17650;SDS011;26663;59.302;18.082;2023-02-26T09:37:22;1.10;;;1.10;;
17650;SDS011;26663;59.302;18.082;2023-02-26T09:40:29;7.77;;;1.90;;
17650;SDS011;26663;59.302;18.082;2023-02-26T09:47:12;2.57;;;1.33;;
17650;SDS011;26663;59.302;18.082;2023-02-26T09:50:23;2.00;;;1.30;;
17650;SDS011;26663;59.302;18.082;2023-02-26T09:53:32;2.70;;;1.23;;
17650;SDS011;26663;59.302;18.082;2023-02-26T09:56:42;1.77;;;1.70;;
17650;SDS011;26663;59.302;18.082;2023-02-26T09:59:47;2.73;;;1.40;;
17650;SDS011;26663;59.302;18.082;2023-02-26T10:02:59;1.40;;;1.30;;
17650;SDS011;26663;59.302;18.082;2023-02-26T10:06:17;4.90;;;1.67;;
17650;SDS011;26663;59.302;18.082;2023-02-26T10:09:30;2.43;;;1.23;;
17650;SDS011;26663;59.302;18.082;2023-02-26T10:12:40;1.07;;;1.07;;
17650;SDS011;26663;59.302;18.082;2023-02-26T10:15:47;1.33;;;1.20;;
17650;SDS011;26663;59.302;18.082;2023-02-26T10:18:54;5.30;;;1.73;;
17650;SDS011;26663;59.302;18.082;2023-02-26T10:22:08;2.67;;;1.03;;
17650;SDS011;26663;59.302;18.082;2023-02-26T10:25:20;3.17;;;1.20;;
17650;SDS011;26663;59.302;18.082;2023-02-26T10:28:36;2.10;;;1.53;;
17650;SDS011;26663;59.302;18.082;2023-02-26T10:31:48;5.33;;;1.70;;
17650;SDS011;26663;59.302;18.082;2023-02-26T10:35:02;1.70;;;1.20;;
17650;SDS011;26663;59.302;18.082;2023-02-26T10:38:14;1.77;;;1.67;;
17650;SDS011;26663;59.302;18.082;2023-02-26T10:41:22;1.60;;;1.50;;
17650;SDS011;26663;59.302;18.082;2023-02-26T10:44:33;3.50;;;1.23;;
17650;SDS011;26663;59.302;18.082;2023-02-26T10:47:41;1.70;;;1.40;;
17650;SDS011;26663;59.302;18.082;2023-02-26T10:51:07;6.30;;;1.63;;
17650;SDS011;26663;59.302;18.082;2023-02-26T10:54:19;1.53;;;1.40;;
17650;SDS011;26663;59.302;18.082;2023-02-26T10:57:28;1.00;;;1.00;;
17650;SDS011;26663;59.302;18.082;2023-02-26T11:00:36;2.43;;;1.23;;
17650;SDS011;26663;59.302;18.082;2023-02-26T11:03:42;3.10;;;1.90;;
17650;SDS011;26663;59.302;18.082;2023-02-26T11:06:50;7.00;;;2.27;;
17650;SDS011;26663;59.302;18.082;2023-02-26T11:09:58;2.53;;;1.80;;
17650;SDS011;26663;59.302;18.082;2023-02-26T11:13:04;3.10;;;1.33;;
17650;SDS011;26663;59.302;18.082;2023-02-26T11:16:13;2.77;;;1.43;;
17650;SDS011;26663;59.302;18.082;2023-02-26T11:19:22;1.40;;;1.40;;
17650;SDS011;26663;59.302;18.082;2023-02-26T11:22:32;3.00;;;1.80;;
17650;SDS011;26663;59.302;18.082;2023-02-26T11:25:40;2.10;;;1.20;;
17650;SDS011;26663;59.302;18.082;2023-02-26T11:28:47;3.70;;;1.00;;
17650;SDS011;26663;59.302;18.082;2023-02-26T11:31:54;2.47;;;1.30;;
17650;SDS011;26663;59.302;18.082;2023-02-26T11:35:05;4.93;;;1.70;;
17650;SDS011;26663;59.302;18.082;2023-02-26T11:38:14;2.83;;;1.80;;
17650;SDS011;26663;59.302;18.082;2023-02-26T11:41:23;3.03;;;1.90;;
17650;SDS011;26663;59.302;18.082;2023-02-26T11:44:32;4.57;;;3.03;;
17650;SDS011;26663;59.302;18.082;2023-02-26T11:47:40;2.73;;;1.50;;
17650;SDS011;26663;59.302;18.082;2023-02-26T11:50:45;3.03;;;1.40;;
17650;SDS011;26663;59.302;18.082;2023-02-26T11:53:52;1.37;;;1.07;;
17650;SDS011;26663;59.302;18.082;2023-02-26T11:57:01;3.10;;;1.30;;
17650;SDS011;26663;59.302;18.082;2023-02-26T12:00:16;2.23;;;2.00;;
17650;SDS011;26663;59.302;18.082;2023-02-26T12:03:25;4.00;;;2.00;;
17650;SDS011;26663;59.302;18.082;2023-02-26T12:06:32;2.03;;;1.70;;
17650;SDS011;26663;59.302;18.082;2023-02-26T12:09:37;1.10;;;1.00;;
17650;SDS011;26663;59.302;18.082;2023-02-26T12:12:49;1.70;;;1.00;;
17650;SDS011;26663;59.302;18.082;2023-02-26T12:16:05;1.13;;;1.10;;
17650;SDS011;26663;59.302;18.082;2023-02-26T12:19:17;1.50;;;1.40;;
17650;SDS011;26663;59.302;18.082;2023-02-26T12:22:41;2.17;;;1.10;;
17650;SDS011;26663;59.302;18.082;2023-02-26T12:25:58;1.10;;;1.10;;
17650;SDS011;26663;59.302;18.082;2023-02-26T12:29:28;1.00;;;1.00;;
17650;SDS011;26663;59.302;18.082;2023-02-26T12:32:52;3.20;;;1.50;;
17650;SDS011;26663;59.302;18.082;2023-02-26T12:36:07;1.47;;;1.40;;
17650;SDS011;26663;59.302;18.082;2023-02-26T12:39:31;1.43;;;1.20;;
17650;SDS011;26663;59.302;18.082;2023-02-26T12:42:45;1.63;;;1.00;;
17650;SDS011;26663;59.302;18.082;2023-02-26T12:46:00;1.47;;;1.37;;
17650;SDS011;26663;59.302;18.082;2023-02-26T12:49:21;2.43;;;1.20;;
17650;SDS011;26663;59.302;18.082;2023-02-26T12:52:57;1.90;;;1.17;;
17650;SDS011;26663;59.302;18.082;2023-02-26T12:56:20;1.23;;;1.00;;
17650;SDS011;26663;59.302;18.082;2023-02-26T12:59:47;1.00;;;1.00;;
17650;SDS011;26663;59.302;18.082;2023-02-26T13:03:23;1.00;;;1.00;;
17650;SDS011;26663;59.302;18.082;2023-02-26T13:06:59;0.80;;;0.80;;
17650;SDS011;26663;59.302;18.082;2023-02-26T13:10:13;1.67;;;1.00;;
17650;SDS011;26663;59.302;18.082;2023-02-26T13:13:31;1.60;;;1.60;;
17650;SDS011;26663;59.302;18.082;2023-02-26T13:16:58;2.43;;;1.10;;
17650;SDS011;26663;59.302;18.082;2023-02-26T13:20:10;0.90;;;0.90;;
17650;SDS011;26663;59.302;18.082;2023-02-26T13:23:18;0.80;;;0.80;;
17650;SDS011;26663;59.302;18.082;2023-02-26T13:26:25;0.90;;;0.90;;
17650;SDS011;26663;59.302;18.082;2023-02-26T13:29:35;1.10;;;1.10;;
17650;SDS011;26663;59.302;18.082;2023-02-26T13:32:46;1.37;;;1.33;;
17650;SDS011;26663;59.302;18.082;2023-02-26T13:35:57;2.00;;;1.00;;
17650;SDS011;26663;59.302;18.082;2023-02-26T13:39:11;1.00;;;1.00;;
17650;SDS011;26663;59.302;18.082;2023-02-26T13:42:31;1.73;;;1.03;;
17650;SDS011;26663;59.302;18.082;2023-02-26T13:45:44;1.90;;;1.20;;
17650;SDS011;26663;59.302;18.082;2023-02-26T13:48:54;0.90;;;0.90;;
17650;SDS011;26663;59.302;18.082;2023-02-26T13:52:04;1.20;;;1.10;;
17650;SDS011;26663;59.302;18.082;2023-02-26T13:55:33;2.40;;;1.23;;
17650;SDS011;26663;59.302;18.082;2023-02-26T13:58:48;0.90;;;0.90;;
17650;SDS011;26663;59.302;18.082;2023-02-26T14:01:57;1.00;;;1.00;;
17650;SDS011;26663;59.302;18.082;2023-02-26T14:05:09;3.13;;;0.93;;
17650;SDS011;26663;59.302;18.082;2023-02-26T14:11:56;0.90;;;0.90;;
17650;SDS011;26663;59.302;18.082;2023-02-26T14:18:34;0.87;;;0.80;;
17650;SDS011;26663;59.302;18.082;2023-02-26T14:21:47;0.97;;;0.97;;
17650;SDS011;26663;59.302;18.082;2023-02-26T14:24:55;0.83;;;0.83;;
17650;SDS011;26663;59.302;18.082;2023-02-26T14:28:18;1.87;;;1.87;;
17650;SDS011;26663;59.302;18.082;2023-02-26T14:31:46;0.97;;;0.93;;
17650;SDS011;26663;59.302;18.082;2023-02-26T14:35:16;0.87;;;0.87;;
17650;SDS011;26663;59.302;18.082;2023-02-26T14:38:23;0.97;;;0.97;;
17650;SDS011;26663;59.302;18.082;2023-02-26T14:41:31;0.90;;;0.90;;
17650;SDS011;26663;59.302;18.082;2023-02-26T14:44:41;1.87;;;1.20;;
17650;SDS011;26663;59.302;18.082;2023-02-26T14:47:48;1.17;;;0.90;;
17650;SDS011;26663;59.302;18.082;2023-02-26T14:51:01;1.03;;;0.90;;
17650;SDS011;26663;59.302;18.082;2023-02-26T14:54:21;1.00;;;1.00;;
17650;SDS011;26663;59.302;18.082;2023-02-26T14:57:38;5.83;;;0.90;;
17650;SDS011;26663;59.302;18.082;2023-02-26T15:00:51;1.00;;;1.00;;
17650;SDS011;26663;59.302;18.082;2023-02-26T15:04:05;1.00;;;0.90;;
17650;SDS011;26663;59.302;18.082;2023-02-26T15:07:29;1.40;;;0.90;;
17650;SDS011;26663;59.302;18.082;2023-02-26T15:10:43;1.27;;;0.90;;
17650;SDS011;26663;59.302;18.082;2023-02-26T15:14:08;1.40;;;1.40;;
17650;SDS011;26663;59.302;18.082;2023-02-26T15:17:44;1.43;;;1.30;;
17650;SDS011;26663;59.302;18.082;2023-02-26T15:20:57;0.93;;;0.90;;
17650;SDS011;26663;59.302;18.082;2023-02-26T15:24:08;1.90;;;1.50;;
17650;SDS011;26663;59.302;18.082;2023-02-26T15:27:17;4.63;;;1.20;;
17650;SDS011;26663;59.302;18.082;2023-02-26T15:30:24;1.83;;;1.00;;
17650;SDS011;26663;59.302;18.082;2023-02-26T15:33:33;1.00;;;1.00;;
17650;SDS011;26663;59.302;18.082;2023-02-26T15:36:40;1.50;;;1.40;;
17650;SDS011;26663;59.302;18.082;2023-02-26T15:39:47;2.10;;;1.13;;
17650;SDS011;26663;59.302;18.082;2023-02-26T15:42:54;1.47;;;1.00;;
17650;SDS011;26663;59.302;18.082;2023-02-26T15:46:01;3.17;;;1.20;;
17650;SDS011;26663;59.302;18.082;2023-02-26T15:49:11;3.13;;;1.50;;
17650;SDS011;26663;59.302;18.082;2023-02-26T15:52:19;1.73;;;1.30;;
17650;SDS011;26663;59.302;18.082;2023-02-26T15:55:27;4.57;;;1.50;;
17650;SDS011;26663;59.302;18.082;2023-02-26T15:58:36;2.97;;;2.00;;
17650;SDS011;26663;59.302;18.082;2023-02-26T16:01:46;2.57;;;2.33;;
17650;SDS011;26663;59.302;18.082;2023-02-26T16:04:52;1.47;;;1.47;;
17650;SDS011;26663;59.302;18.082;2023-02-26T16:07:57;5.60;;;2.20;;
17650;SDS011;26663;59.302;18.082;2023-02-26T16:11:02;2.73;;;1.53;;
17650;SDS011;26663;59.302;18.082;2023-02-26T16:14:12;1.47;;;1.30;;
17650;SDS011;26663;59.302;18.082;2023-02-26T16:17:24;4.70;;;1.40;;
17650;SDS011;26663;59.302;18.082;2023-02-26T16:20:32;1.50;;;1.40;;
17650;SDS011;26663;59.302;18.082;2023-02-26T16:23:42;5.13;;;1.67;;
17650;SDS011;26663;59.302;18.082;2023-02-26T16:26:49;3.07;;;1.30;;
17650;SDS011;26663;59.302;18.082;2023-02-26T16:29:58;2.73;;;1.40;;
17650;SDS011;26663;59.302;18.082;2023-02-26T16:33:06;4.70;;;2.80;;
17650;SDS011;26663;59.302;18.082;2023-02-26T16:36:15;2.60;;;2.47;;
17650;SDS011;26663;59.302;18.082;2023-02-26T16:39:29;4.43;;;2.63;;
17650;SDS011;26663;59.302;18.082;2023-02-26T16:42:42;2.00;;;1.83;;
17650;SDS011;26663;59.302;18.082;2023-02-26T16:45:49;2.23;;;1.83;;
17650;SDS011;26663;59.302;18.082;2023-02-26T16:48:59;2.43;;;1.73;;
17650;SDS011;26663;59.302;18.082;2023-02-26T16:52:08;2.17;;;1.60;;
17650;SDS011;26663;59.302;18.082;2023-02-26T16:55:18;4.13;;;1.70;;
17650;SDS011;26663;59.302;18.082;2023-02-26T16:58:24;2.57;;;2.40;;
17650;SDS011;26663;59.302;18.082;2023-02-26T17:01:30;3.17;;;2.80;;
17650;SDS011;26663;59.302;18.082;2023-02-26T17:04:40;6.17;;;1.90;;
17650;SDS011;26663;59.302;18.082;2023-02-26T17:07:46;6.53;;;1.73;;
17650;SDS011;26663;59.302;18.082;2023-02-26T17:10:59;1.70;;;1.60;;
17650;SDS011;26663;59.302;18.082;2023-02-26T17:17:29;5.70;;;1.90;;
17650;SDS011;26663;59.302;18.082;2023-02-26T17:20:36;1.90;;;1.60;;
17650;SDS011;26663;59.302;18.082;2023-02-26T17:23:44;2.27;;;1.77;;
17650;SDS011;26663;59.302;18.082;2023-02-26T17:26:49;3.80;;;2.17;;
17650;SDS011;26663;59.302;18.082;2023-02-26T17:29:55;3.33;;;2.60;;
17650;SDS011;26663;59.302;18.082;2023-02-26T17:33:01;3.30;;;2.37;;
17650;SDS011;26663;59.302;18.082;2023-02-26T17:36:14;2.27;;;2.17;;
17650;SDS011;26663;59.302;18.082;2023-02-26T17:39:20;7.00;;;2.17;;
17650;SDS011;26663;59.302;18.082;2023-02-26T17:42:25;4.17;;;2.03;;
17650;SDS011;26663;59.302;18.082;2023-02-26T17:45:31;2.73;;;2.20;;
17650;SDS011;26663;59.302;18.082;2023-02-26T17:48:36;3.90;;;2.20;;
17650;SDS011;26663;59.302;18.082;2023-02-26T17:51:44;1.90;;;1.80;;
17650;SDS011;26663;59.302;18.082;2023-02-26T17:54:50;2.47;;;1.90;;
17650;SDS011;26663;59.302;18.082;2023-02-26T17:57:55;4.10;;;2.00;;
17650;SDS011;26663;59.302;18.082;2023-02-26T18:01:03;2.43;;;1.90;;
17650;SDS011;26663;59.302;18.082;2023-02-26T18:04:10;3.07;;;2.10;;
17650;SDS011;26663;59.302;18.082;2023-02-26T18:07:17;8.20;;;2.50;;
17650;SDS011;26663;59.302;18.082;2023-02-26T18:10:22;2.10;;;1.90;;
17650;SDS011;26663;59.302;18.082;2023-02-26T18:13:36;3.10;;;2.00;;
17650;SDS011;26663;59.302;18.082;2023-02-26T18:16:41;4.30;;;2.30;;
17650;SDS011;26663;59.302;18.082;2023-02-26T18:19:48;6.60;;;2.80;;
17650;SDS011;26663;59.302;18.082;2023-02-26T18:22:56;5.53;;;2.43;;
17650;SDS011;26663;59.302;18.082;2023-02-26T18:26:01;6.77;;;2.00;;
17650;SDS011;26663;59.302;18.082;2023-02-26T18:29:08;2.23;;;2.10;;
17650;SDS011;26663;59.302;18.082;2023-02-26T18:32:15;1.70;;;1.60;;
17650;SDS011;26663;59.302;18.082;2023-02-26T18:35:23;3.83;;;2.00;;
17650;SDS011;26663;59.302;18.082;2023-02-26T18:38:30;4.87;;;1.90;;
17650;SDS011;26663;59.302;18.082;2023-02-26T18:41:36;1.90;;;1.80;;
17650;SDS011;26663;59.302;18.082;2023-02-26T18:44:41;1.90;;;1.80;;
17650;SDS011;26663;59.302;18.082;2023-02-26T18:47:49;4.10;;;1.90;;
17650;SDS011;26663;59.302;18.082;2023-02-26T18:50:54;2.53;;;1.80;;
17650;SDS011;26663;59.302;18.082;2023-02-26T18:54:01;5.40;;;2.00;;
17650;SDS011;26663;59.302;18.082;2023-02-26T18:57:09;4.40;;;2.37;;